Flight Track Log - Related Links

Times and Time Zones

All times are in EDT time to prevent confusion due to time zone crossing. See the EJA929 flight status page for this flight to view local times or setup timezone preferences in your user account.

Time Position Orientation Groundspeed Altitude Reporting Facility
EDT Latitude Longitude Course Direction KTS MPH feet Rate Location/Type
12:55PM 38.2011 -122.3139 257° West 175 201 1,100  Level Oakland Center
12:56PM 38.1864 -122.3958 257° West 246 283 3,500 2,878 Climbing Oakland Center
12:58PM 38.2242 -122.4783 300° West 273 314 7,000 2,976 Climbing Oakland Center
12:59PM 38.2942 -122.4294 29° Northeast 282 325 9,600 2,390 Climbing Oakland Center
01:00PM 38.3664 -122.3744 31° Northeast 302 348 11,900 1,951 Climbing Oakland Center
01:01PM 38.4392 -122.2994 39° Northeast 333 383 13,600 1,659 Climbing Oakland Center
01:02PM 38.4931 -122.1950 57° Northeast 352 405 15,300 1,805 Climbing Oakland Center
01:03PM 38.4883 -122.0744 93° East 345 397 17,300 2,098 Climbing Oakland Center
01:04PM 38.4644 -121.9558 104° East 345 397 19,600 2,293 Climbing Oakland Center
01:05PM 38.4381 -121.8239 104° East 351 404 22,000 2,341 Climbing Oakland Center
01:06PM 38.4103 -121.6858 104° East 358 412 24,400 2,323 Climbing Oakland Center
01:07PM 38.3844 -121.5606 105° East 363 418 26,800 1,902 Climbing Oakland Center
01:08PM 38.3617 -121.4483 104° East 372 428 28,300 1,122 Climbing Oakland Center
01:09PM 38.3264 -121.2797 105° East 411 473 29,100 387 Climbing Oakland Center
01:10PM 38.2950 -121.1242 104° East 453 521 29,100  Level Oakland Center
01:11PM 38.2617 -120.9611 105° East 477 549 29,100 -49 Level Oakland Center
01:12PM 38.2261 -120.7936 105° East 491 565 29,000  Descending Oakland Center
01:13PM 38.1900 -120.6236 105° East 503 579 29,100 49 Climbing Oakland Center
01:14PM 38.1539 -120.4536 105° East 500 575 29,100  Level Oakland Center
01:15PM 38.1100 -120.2486 105° East 503 579 29,100  Level Oakland Center
01:16PM 38.0731 -120.0764 105° East 506 582 29,100 -48 Level Oakland Center
01:17PM 38.0403 -119.9044 104° East 505 581 29,000 -49 Descending Oakland Center
01:18PM 38.0003 -119.7333 106° East 504 580 29,000 49 Level Oakland Center
01:19PM 37.9628 -119.5625 106° East 505 581 29,100 49 Climbing Oakland Center
01:20PM 37.9236 -119.3903 106° East 508 585 29,100  Level Oakland Center
01:21PM 37.8847 -119.2183 106° East 508 585 29,100  Level Oakland Center
01:22PM 37.8389 -119.0111 106° East 512 589 29,100  Level Oakland Center
01:23PM 37.8000 -118.8394 106° East 511 588 29,100  Level Oakland Center
01:24PM 37.7617 -118.6725 106° East 508 585 29,100  Level Oakland Center
01:25PM 37.7211 -118.5006 107° East 510 587 29,100  Level Oakland Center
01:26PM 37.6811 -118.3294 106° East 511 588 29,100  Level Oakland Center
01:27PM 37.6417 -118.1578 106° East 510 587 29,100  Level Oakland Center
01:28PM 37.5925 -117.9536 107° East 510 587 29,100  Level Oakland Center
01:29PM 37.5522 -117.7825 106° East 512 589 29,100  Level Oakland Center
01:30PM 37.5117 -117.6128 107° East 511 588 29,100  Level Oakland Center
01:31PM 37.4703 -117.4425 107° East 513 590 29,100  Level Oakland Center
01:32PM 37.4442 -117.3394 108° East 514 592 29,100  Level Los Angeles Center
01:33PM 37.3283 -117.1917 135° Southeast 505 581 29,100  Level Los Angeles Center
01:34PM 37.2131 -117.0947 146° Southeast 499 574 29,100  Level Los Angeles Center
01:35PM 37.0981 -116.9986 146° Southeast 499 574 29,100  Level Los Angeles Center
01:36PM 36.9833 -116.9011 146° Southeast 499 574 29,100  Level Los Angeles Center
01:37PM 36.8681 -116.8044 146° Southeast 499 574 29,100  Level Los Angeles Center
01:38PM 36.7442 -116.6686 139° Southeast 502 578 29,100 -48 Level Los Angeles Center
01:39PM 36.6519 -116.5361 131° Southeast 504 580 29,000 -1,258 Descending Los Angeles Center
01:40PM 36.5597 -116.4050 131° Southeast 504 580 26,500 -2,371 Descending Los Angeles Center
01:41PM 36.4792 -116.2872 130° Southeast 497 572 24,100 -2,468 Descending Los Angeles Center
01:42PM 36.3853 -116.1536 131° Southeast 440 506 21,400 -2,352 Descending Los Angeles Center
01:43PM 36.3119 -116.0533 132° Southeast 395 455 19,200 -1,968 Descending Los Angeles Center
01:45PM 36.2461 -115.9606 131° Southeast 336 387 17,300 -1,694 Descending Los Angeles Center
01:46PM 36.1925 -115.8792 129° Southeast 308 354 15,700 -1,210 Descending Los Angeles Center
01:47PM 36.1622 -115.7758 110° East 298 343 14,800 -919 Descending Los Angeles Center
01:48PM 36.1281 -115.6733 112° Southeast 320 368 13,800 -968 Descending Los Angeles Center
01:49PM 36.0939 -115.5683 112° Southeast 309 356 12,800 -864 Descending Los Angeles Center
01:50PM 36.0639 -115.4783 112° Southeast 302 348 12,000 -768 Descending Los Angeles Center
01:51PM 36.0347 -115.3889 112° Southeast 291 335 11,200 -1,065 Descending Los Angeles Center
01:52PM 36.0242 -115.2761 97° East 280 322 9,800 -1,113 Descending Los Angeles Center
01:53PM 36.0169 -115.1850 96° East 271 312 8,900 -871 Descending Los Angeles Center
01:54PM 36.0106 -115.0947 95° East 268 308 8,000 -581 Descending Los Angeles Center
01:55PM 36.0267 -115.0333 72° East 226 260 7,700 -912 Descending Los Angeles Center
01:56PM 36.0786 -115.0100 20° North 203 234 6,100 -1,200 Descending Los Angeles Center
01:57PM 36.1239 -115.0175 352° North 206 237 5,200 -1,065 Descending Los Angeles Center
01:58PM 36.1361 -115.0958 281° West 198 228 3,900 -1,161 Descending Los Angeles Center
01:59PM 36.1247 -115.1403 252° West 171 197 2,800 -871 Descending Los Angeles Center
02:00PM 36.0903 -115.1603 205° Southwest 152 175 2,100 -677 Descending Los Angeles Center
02:02PM 36.0801 -115.1523 180° South  Level Estimated

Login

Don't have an account? Register now (free) for customized features, flight alerts, and more!